Time;durP1;ratioP1;P1;durP2;ratioP2;P2;SDS_P1;SDS_P2;PMS_P1;PMS_P2;Temp;Humidity;BMP_temperature;BMP_pressure;BME280_temperature;BME280_humidity;BME280_pressure;Samples;Min_cycle;Max_cycle;Signal;HPM_P1;HPM_P2
2023/08/31 00:02:14;;;;;;;4.28;2.33;;;11.10;99.90;;;;;;5110860;28;20058;-68
2023/08/31 00:04:40;;;;;;;7.35;2.40;;;11.10;99.90;;;;;;5110928;28;20074;-68
2023/08/31 00:07:06;;;;;;;7.22;2.80;;;11.10;99.90;;;;;;5092136;28;20505;-67
2023/08/31 00:09:32;;;;;;;4.55;2.33;;;11.10;99.90;;;;;;5109981;28;20123;-68
2023/08/31 00:11:58;;;;;;;3.65;2.22;;;11.10;99.90;;;;;;5110490;28;20115;-68
2023/08/31 00:14:26;;;;;;;6.80;2.25;;;11.10;99.90;;;;;;5110614;28;20039;-68
2023/08/31 00:16:52;;;;;;;4.93;2.50;;;11.30;99.90;;;;;;5083680;28;20154;-68
2023/08/31 00:19:17;;;;;;;4.43;2.10;;;11.10;99.90;;;;;;5102629;28;20118;-68
2023/08/31 00:21:43;;;;;;;6.63;3.03;;;11.10;99.90;;;;;;5110739;28;20036;-67
2023/08/31 00:24:10;;;;;;;6.68;2.30;;;11.10;99.90;;;;;;5096094;27;20124;-68
2023/08/31 00:26:42;;;;;;;4.47;2.08;;;11.10;99.90;;;;;;5114599;27;20044;-67
2023/08/31 00:29:10;;;;;;;5.15;2.00;;;11.10;99.90;;;;;;5108419;28;20044;-68
2023/08/31 00:31:37;;;;;;;4.82;2.10;;;11.10;99.90;;;;;;5111000;28;20078;-67
2023/08/31 00:34:04;;;;;;;6.20;2.00;;;11.10;99.90;;;;;;5110679;28;20051;-68
2023/08/31 00:36:33;;;;;;;8.60;2.33;;;11.10;99.90;;;;;;5110684;28;20184;-69
2023/08/31 00:39:02;;;;;;;7.25;2.00;;;11.00;99.90;;;;;;5110198;28;20514;-68
2023/08/31 00:41:28;;;;;;;4.38;1.70;;;11.00;99.90;;;;;;5110283;28;20047;-69
2023/08/31 00:43:54;;;;;;;7.13;1.60;;;11.00;99.90;;;;;;5110514;28;20097;-68
2023/08/31 00:46:19;;;;;;;4.55;1.60;;;11.00;99.90;;;;;;5110296;28;20047;-70
2023/08/31 00:48:45;;;;;;;6.00;1.45;;;11.00;99.90;;;;;;5110291;28;20048;-67
2023/08/31 00:51:11;;;;;;;4.40;1.30;;;11.00;99.90;;;;;;5110480;28;20041;-68
2023/08/31 00:53:37;;;;;;;5.35;1.40;;;11.10;99.90;;;;;;5110388;28;20050;-68
2023/08/31 00:56:03;;;;;;;5.80;1.33;;;11.30;99.90;;;;;;5109756;28;20478;-67
2023/08/31 00:58:30;;;;;;;7.40;1.33;;;11.00;99.90;;;;;;5110373;28;20112;-70
2023/08/31 01:01:04;;;;;;;5.35;1.30;;;10.90;99.90;;;;;;5109940;28;20127;-70
2023/08/31 01:03:51;;;;;;;3.63;1.10;;;11.00;99.90;;;;;;5110285;28;20078;-66
2023/08/31 01:06:26;;;;;;;2.80;0.90;;;10.90;99.90;;;;;;5110415;28;20113;-68
2023/08/31 01:09:10;;;;;;;;;;;10.90;99.90;;;;;;5102921;28;20482;-69
2023/08/31 01:11:45;;;;;;;6.72;1.20;;;10.90;99.90;;;;;;5108933;28;19919;-68
2023/08/31 01:14:16;;;;;;;2.22;0.90;;;11.00;99.90;;;;;;5110146;28;20047;-69
2023/08/31 01:16:45;;;;;;;3.00;0.80;;;10.90;99.90;;;;;;5109972;28;20075;-70
2023/08/31 01:19:38;;;;;;;2.92;0.80;;;10.80;99.90;;;;;;5109745;28;20054;-68
2023/08/31 01:22:09;;;;;;;3.58;0.90;;;10.80;99.90;;;;;;5095092;28;20399;-69
2023/08/31 01:24:36;;;;;;;1.65;0.70;;;11.10;99.90;;;;;;5117263;28;20067;-70
2023/08/31 01:27:02;;;;;;;2.95;0.77;;;10.80;99.90;;;;;;5091469;28;20039;-69
2023/08/31 01:29:30;;;;;;;4.13;0.98;;;10.80;99.90;;;;;;5115453;27;20090;-68
2023/08/31 01:31:55;;;;;;;4.40;1.38;;;10.80;99.90;;;;;;5118379;27;20057;-68
2023/08/31 01:34:21;;;;;;;5.00;0.88;;;10.70;99.90;;;;;;5114611;28;20040;-69
2023/08/31 01:36:52;;;;;;;3.92;0.90;;;10.70;99.90;;;;;;5122043;28;20114;-69
2023/08/31 01:39:33;;;;;;;3.38;1.15;;;10.60;99.90;;;;;;5092128;28;20043;-68
2023/08/31 01:42:04;;;;;;;3.70;1.10;;;10.60;99.90;;;;;;5117534;28;20043;-67
2023/08/31 01:44:32;;;;;;;2.78;1.13;;;10.50;99.90;;;;;;5121585;28;20517;-68
2023/08/31 01:47:05;;;;;;;3.92;0.95;;;10.50;99.90;;;;;;5121458;28;20045;-67
2023/08/31 01:49:40;;;;;;;3.53;1.20;;;10.50;99.90;;;;;;5118233;28;20075;-68
2023/08/31 01:52:07;;;;;;;3.80;1.20;;;10.40;99.90;;;;;;5114996;28;20039;-69
2023/08/31 01:54:33;;;;;;;3.63;1.08;;;10.60;99.90;;;;;;5119459;27;20071;-70
2023/08/31 01:56:59;;;;;;;4.18;1.00;;;10.30;99.90;;;;;;5122354;27;20055;-67
2023/08/31 01:59:25;;;;;;;1.80;0.80;;;10.30;99.90;;;;;;5117141;27;20043;-69
2023/08/31 02:01:51;;;;;;;2.67;1.10;;;10.30;99.90;;;;;;5104204;28;20117;-68
2023/08/31 02:04:17;;;;;;;5.88;1.00;;;10.30;99.90;;;;;;5122476;27;20421;-70
2023/08/31 02:06:42;;;;;;;3.35;0.80;;;10.30;99.90;;;;;;5122470;27;20092;-69
2023/08/31 02:09:08;;;;;;;2.65;0.85;;;10.30;99.90;;;;;;5122233;27;20040;-69
2023/08/31 02:11:37;;;;;;;7.15;1.10;;;10.30;99.90;;;;;;5123971;27;20040;-70
2023/08/31 02:14:04;;;;;;;3.20;1.02;;;10.30;99.90;;;;;;5125555;27;20441;-68
2023/08/31 02:16:30;;;;;;;5.65;1.15;;;10.30;99.90;;;;;;5125110;27;20039;-67
2023/08/31 02:18:56;;;;;;;2.08;0.70;;;10.20;99.90;;;;;;5121607;27;20402;-69
2023/08/31 02:21:22;;;;;;;2.95;1.20;;;10.30;99.90;;;;;;5122179;27;20081;-68
2023/08/31 02:23:48;;;;;;;5.80;1.02;;;10.30;99.90;;;;;;5130520;27;20061;-69
2023/08/31 02:26:14;;;;;;;4.03;1.17;;;10.20;99.90;;;;;;5108104;28;20048;-68
2023/08/31 02:28:39;;;;;;;4.22;1.05;;;10.20;99.90;;;;;;5109407;28;20052;-67
2023/08/31 02:31:05;;;;;;;5.38;1.00;;;10.20;99.90;;;;;;5094754;28;20039;-69
2023/08/31 02:33:31;;;;;;;4.28;1.65;;;10.30;99.90;;;;;;5113186;28;20031;-68
2023/08/31 02:35:57;;;;;;;3.17;1.10;;;10.20;99.90;;;;;;5112425;28;20047;-68
2023/08/31 02:38:23;;;;;;;3.67;0.90;;;10.20;99.90;;;;;;5104532;28;20051;-67
2023/08/31 02:40:49;;;;;;;5.85;0.80;;;10.20;99.90;;;;;;5113280;28;20536;-69
2023/08/31 02:43:15;;;;;;;3.60;1.00;;;10.20;99.90;;;;;;5112763;28;20039;-68
2023/08/31 02:45:41;;;;;;;3.38;0.80;;;10.20;99.90;;;;;;5112260;28;20040;-68
2023/08/31 02:48:07;;;;;;;3.17;0.82;;;10.20;99.90;;;;;;5111909;28;20046;-70
2023/08/31 02:50:35;;;;;;;3.40;1.00;;;10.20;99.90;;;;;;5105564;28;20401;-67
2023/08/31 02:53:01;;;;;;;3.47;1.00;;;10.20;99.90;;;;;;5112955;28;20043;-68
2023/08/31 02:55:26;;;;;;;3.65;0.80;;;10.20;99.90;;;;;;5112731;28;20127;-68
2023/08/31 02:57:52;;;;;;;5.60;1.15;;;10.40;99.90;;;;;;5105961;28;20102;-70
2023/08/31 03:00:21;;;;;;;2.13;0.73;;;10.20;99.90;;;;;;5109673;28;20050;-66
2023/08/31 03:02:47;;;;;;;2.97;0.75;;;10.20;99.90;;;;;;5105370;28;20043;-67
2023/08/31 03:05:13;;;;;;;2.15;0.70;;;10.10;99.90;;;;;;5112270;28;20066;-68
2023/08/31 03:07:39;;;;;;;4.28;0.88;;;10.10;99.90;;;;;;5109519;28;20039;-68
2023/08/31 03:10:05;;;;;;;2.67;0.85;;;10.30;99.90;;;;;;5094052;28;20543;-68
2023/08/31 03:12:31;;;;;;;5.22;1.00;;;10.10;99.90;;;;;;5111090;28;20062;-69
2023/08/31 03:14:57;;;;;;;2.13;0.65;;;10.10;99.90;;;;;;5108386;28;20483;-68
2023/08/31 03:17:22;;;;;;;5.10;0.73;;;10.00;99.90;;;;;;5106257;28;20040;-69
2023/08/31 03:19:49;;;;;;;3.95;0.80;;;10.10;99.90;;;;;;5112421;28;20229;-69
2023/08/31 03:22:14;;;;;;;5.05;1.00;;;10.10;99.90;;;;;;5111870;28;20518;-67
2023/08/31 03:24:40;;;;;;;3.25;0.80;;;10.10;99.90;;;;;;5121923;27;20068;-69
2023/08/31 03:27:06;;;;;;;5.03;0.90;;;10.10;99.90;;;;;;5139779;27;20126;-68
2023/08/31 03:29:32;;;;;;;4.60;1.00;;;10.10;99.90;;;;;;5137140;27;20128;-68
2023/08/31 03:31:59;;;;;;;3.08;0.90;;;10.10;99.90;;;;;;5131960;27;20058;-69
2023/08/31 03:34:29;;;;;;;5.15;1.10;;;10.10;99.90;;;;;;5132948;27;20055;-68
2023/08/31 03:36:54;;;;;;;4.63;0.95;;;10.10;99.90;;;;;;5132005;27;20091;-69
2023/08/31 03:39:20;;;;;;;3.63;1.00;;;10.10;99.90;;;;;;5137225;27;20154;-67
2023/08/31 03:41:46;;;;;;;3.90;0.80;;;11.00;99.90;;;;;;5132677;27;20031;-70
2023/08/31 03:44:11;;;;;;;3.03;0.90;;;10.20;99.90;;;;;;5132794;27;20057;-69
2023/08/31 03:46:37;;;;;;;2.97;0.90;;;10.10;99.90;;;;;;5113411;27;20042;-68
2023/08/31 03:49:03;;;;;;;3.45;0.95;;;10.20;99.90;;;;;;5131810;27;20138;-67
2023/08/31 03:51:29;;;;;;;3.22;1.10;;;10.20;99.90;;;;;;5115332;27;20134;-68
2023/08/31 03:53:56;;;;;;;5.68;1.10;;;10.20;99.90;;;;;;5128087;27;20073;-67
2023/08/31 03:56:22;;;;;;;6.55;1.25;;;10.20;99.90;;;;;;5133832;27;20051;-69
2023/08/31 03:58:48;;;;;;;3.83;1.50;;;10.20;99.90;;;;;;5131704;27;20038;-70
2023/08/31 04:01:14;;;;;;;5.53;1.05;;;10.30;99.90;;;;;;5132235;27;20131;-67
2023/08/31 04:03:42;;;;;;;2.17;1.02;;;10.30;99.90;;;;;;5125606;27;20464;-67
2023/08/31 04:06:07;;;;;;;4.18;1.27;;;10.20;99.90;;;;;;5127066;27;20027;-67
2023/08/31 04:08:33;;;;;;;5.28;1.23;;;10.30;99.90;;;;;;5131161;27;20039;-67
2023/08/31 04:10:59;;;;;;;4.60;1.23;;;10.30;99.90;;;;;;5132439;27;20114;-67
2023/08/31 04:13:24;;;;;;;2.65;1.00;;;10.30;99.90;;;;;;5138285;27;20126;-68
2023/08/31 04:15:51;;;;;;;5.65;1.58;;;10.30;99.90;;;;;;5120662;27;20456;-68
2023/08/31 04:18:16;;;;;;;5.55;1.30;;;10.30;99.90;;;;;;5113465;27;20055;-67
2023/08/31 04:20:50;;;;;;;2.00;1.20;;;10.30;99.90;;;;;;5133641;27;20653;-67
2023/08/31 04:23:17;;;;;;;6.80;1.80;;;10.40;99.90;;;;;;5130639;27;20062;-67
2023/08/31 04:25:43;;;;;;;5.95;1.20;;;10.30;99.90;;;;;;5113689;27;20453;-68
2023/08/31 04:28:08;;;;;;;4.40;1.65;;;11.00;99.90;;;;;;5101828;28;20036;-68
2023/08/31 04:30:34;;;;;;;3.15;1.27;;;10.30;99.90;;;;;;5091693;28;20151;-68
2023/08/31 04:32:59;;;;;;;2.75;1.40;;;10.30;99.90;;;;;;5107974;28;20560;-68
2023/08/31 04:35:25;;;;;;;7.55;1.50;;;10.40;99.90;;;;;;5104403;28;20043;-69
2023/08/31 04:37:51;;;;;;;3.53;1.55;;;10.40;99.90;;;;;;5110429;28;20483;-68
2023/08/31 04:40:16;;;;;;;4.07;1.60;;;10.30;99.90;;;;;;5110795;28;20513;-68
2023/08/31 04:42:43;;;;;;;4.32;1.67;;;10.30;99.90;;;;;;5110276;28;20456;-68
2023/08/31 04:45:10;;;;;;;5.82;2.00;;;10.30;99.90;;;;;;5101612;28;20491;-68
2023/08/31 04:47:36;;;;;;;6.32;2.08;;;10.20;99.90;;;;;;5091651;28;20059;-68
2023/08/31 04:50:03;;;;;;;6.78;2.40;;;10.30;99.90;;;;;;5110034;28;20462;-69
2023/08/31 04:52:28;;;;;;;5.22;2.15;;;10.20;99.90;;;;;;5110450;28;20524;-68
2023/08/31 04:54:54;;;;;;;6.40;2.47;;;10.20;99.90;;;;;;5109593;28;20075;-68
2023/08/31 04:57:19;;;;;;;5.22;2.17;;;10.20;99.90;;;;;;5110211;28;20040;-68
2023/08/31 04:59:45;;;;;;;6.15;2.00;;;10.30;99.90;;;;;;5110104;28;20521;-68
2023/08/31 05:02:11;;;;;;;5.80;2.35;;;10.20;99.90;;;;;;5109877;28;20043;-67
2023/08/31 05:04:36;;;;;;;7.60;2.60;;;10.30;99.90;;;;;;5109022;28;20044;-67
2023/08/31 05:07:03;;;;;;;5.80;2.40;;;10.30;99.90;;;;;;5103694;28;20134;-67
2023/08/31 05:09:32;;;;;;;4.60;1.95;;;10.20;99.90;;;;;;5107423;28;20088;-68
2023/08/31 05:11:58;;;;;;;8.88;2.38;;;10.20;99.90;;;;;;5107422;28;20051;-67
2023/08/31 05:14:25;;;;;;;8.23;2.70;;;10.30;99.90;;;;;;5100912;28;20509;-68
2023/08/31 05:16:50;;;;;;;6.30;2.30;;;10.30;99.90;;;;;;5102172;28;20063;-68
2023/08/31 05:19:16;;;;;;;3.85;2.00;;;10.50;99.90;;;;;;5110492;28;20451;-67
2023/08/31 05:21:41;;;;;;;6.07;2.40;;;10.30;99.90;;;;;;5109494;28;20473;-68
2023/08/31 05:24:07;;;;;;;4.68;2.40;;;10.40;99.90;;;;;;5112135;27;20111;-68
2023/08/31 05:26:33;;;;;;;5.65;2.03;;;10.40;99.90;;;;;;5110127;28;20096;-68
2023/08/31 05:28:58;;;;;;;4.07;2.00;;;10.40;99.90;;;;;;5111607;28;20136;-68
2023/08/31 05:31:24;;;;;;;7.65;1.90;;;10.40;99.90;;;;;;5115689;27;20047;-67
2023/08/31 05:33:50;;;;;;;7.90;2.08;;;10.50;99.90;;;;;;5110404;28;20176;-68
2023/08/31 05:36:15;;;;;;;9.52;2.40;;;10.50;99.90;;;;;;5109211;28;20039;-68
2023/08/31 05:38:41;;;;;;;7.85;1.95;;;10.60;99.90;;;;;;5109722;28;20048;-67
2023/08/31 05:41:08;;;;;;;6.10;2.00;;;10.60;99.90;;;;;;5091541;28;20047;-68
2023/08/31 05:43:35;;;;;;;7.10;2.08;;;10.70;99.90;;;;;;5109766;28;20035;-67
2023/08/31 05:46:00;;;;;;;4.28;1.70;;;10.70;99.90;;;;;;5109646;28;20050;-67
2023/08/31 05:48:26;;;;;;;7.28;2.05;;;10.80;99.90;;;;;;5117910;28;20043;-67
2023/08/31 05:50:52;;;;;;;5.40;1.92;;;10.80;99.90;;;;;;5109629;28;20039;-68
2023/08/31 05:53:17;;;;;;;8.25;1.80;;;10.90;99.90;;;;;;5109013;28;20050;-68
2023/08/31 05:55:43;;;;;;;8.85;1.90;;;10.90;99.90;;;;;;5109902;28;20048;-68
2023/08/31 05:58:08;;;;;;;8.43;1.90;;;11.20;99.90;;;;;;5109741;28;20097;-68
2023/08/31 06:00:35;;;;;;;6.00;2.03;;;11.10;99.90;;;;;;5109341;28;20039;-67
2023/08/31 06:03:03;;;;;;;8.68;1.80;;;11.20;99.90;;;;;;5110068;28;20047;-68
2023/08/31 06:05:31;;;;;;;8.75;2.22;;;11.40;99.90;;;;;;5109691;28;20049;-68
2023/08/31 06:07:57;;;;;;;9.07;2.08;;;11.30;99.90;;;;;;5109605;28;20046;-68
2023/08/31 06:10:23;;;;;;;11.57;2.67;;;11.40;99.90;;;;;;5118373;28;20043;-68
2023/08/31 06:12:50;;;;;;;7.88;1.83;;;11.50;99.90;;;;;;5113667;28;20122;-68
2023/08/31 06:15:16;;;;;;;12.35;2.95;;;11.50;99.90;;;;;;5114327;28;20109;-68
2023/08/31 06:17:42;;;;;;;5.20;2.25;;;11.60;99.90;;;;;;5091127;28;20066;-67
2023/08/31 06:20:08;;;;;;;7.47;2.30;;;11.70;99.90;;;;;;5109650;28;20114;-68
2023/08/31 06:22:34;;;;;;;7.05;2.45;;;11.80;99.90;;;;;;5108985;28;20043;-67
2023/08/31 06:25:00;;;;;;;6.70;2.95;;;12.00;99.90;;;;;;5106006;28;20050;-67
2023/08/31 06:27:26;;;;;;;7.18;2.40;;;12.00;99.90;;;;;;5089681;28;20055;-67
2023/08/31 06:29:51;;;;;;;6.45;2.15;;;12.20;99.90;;;;;;5107852;28;20105;-67
2023/08/31 06:32:18;;;;;;;9.38;2.33;;;12.00;99.90;;;;;;5082929;28;20130;-68
2023/08/31 06:34:44;;;;;;;8.68;2.35;;;12.10;99.90;;;;;;5109514;28;20413;-68
2023/08/31 06:37:10;;;;;;;6.78;2.10;;;12.20;99.90;;;;;;5097810;28;20441;-67
2023/08/31 06:39:36;;;;;;;7.15;2.65;;;12.30;99.90;;;;;;5103410;28;20065;-69
2023/08/31 06:42:03;;;;;;;10.05;2.25;;;12.30;99.90;;;;;;5093212;28;20112;-67
2023/08/31 06:44:29;;;;;;;4.75;1.77;;;12.40;99.90;;;;;;5106181;28;20043;-68
2023/08/31 06:46:55;;;;;;;7.95;1.95;;;12.50;99.90;;;;;;5112929;28;20040;-68
2023/08/31 06:49:23;;;;;;;7.18;2.20;;;12.50;99.90;;;;;;5112779;28;20091;-68
2023/08/31 06:51:49;;;;;;;5.85;1.70;;;12.60;99.90;;;;;;5112603;28;20107;-68
2023/08/31 06:54:14;;;;;;;8.77;2.00;;;12.70;99.90;;;;;;5112302;28;20118;-68
2023/08/31 06:56:40;;;;;;;8.25;2.03;;;12.80;99.90;;;;;;5112849;28;20036;-68
2023/08/31 06:59:05;;;;;;;4.85;1.95;;;12.80;99.90;;;;;;5112618;28;20042;-68
2023/08/31 07:01:32;;;;;;;5.38;1.73;;;12.90;99.90;;;;;;5085502;28;20047;-68
2023/08/31 07:03:58;;;;;;;10.57;1.80;;;13.00;99.90;;;;;;5112838;28;20443;-68
2023/08/31 07:06:24;;;;;;;7.45;2.00;;;13.10;99.90;;;;;;5112601;28;20051;-68
2023/08/31 07:08:50;;;;;;;6.15;1.73;;;13.20;99.90;;;;;;5112434;28;20390;-68
2023/08/31 07:11:17;;;;;;;6.88;1.50;;;13.20;99.90;;;;;;5103569;28;20051;-67
2023/08/31 07:13:43;;;;;;;8.30;1.85;;;13.40;99.90;;;;;;5112238;28;20047;-68
2023/08/31 07:16:08;;;;;;;5.32;1.50;;;13.40;99.90;;;;;;5112215;28;20047;-67
2023/08/31 07:18:36;;;;;;;3.95;1.58;;;13.60;99.90;;;;;;5093217;28;20101;-68
2023/08/31 07:21:04;;;;;;;6.78;1.45;;;13.60;99.90;;;;;;5107896;28;20479;-68
2023/08/31 07:23:30;;;;;;;8.38;1.50;;;13.70;99.90;;;;;;5108778;28;20044;-68
2023/08/31 07:26:00;;;;;;;5.70;1.58;;;13.70;99.90;;;;;;5111698;28;20055;-67
2023/08/31 07:28:26;;;;;;;5.85;1.42;;;13.90;99.90;;;;;;5112118;28;20051;-67
2023/08/31 07:31:05;;;;;;;2.45;0.80;;;13.90;99.90;;;;;;5103321;28;20529;-68
2023/08/31 07:33:37;;;;;;;7.78;1.33;;;14.00;99.90;;;;;;5112004;28;20486;-68
2023/08/31 07:36:04;;;;;;;6.15;1.15;;;14.30;99.90;;;;;;5111836;28;20039;-67
2023/08/31 07:38:31;;;;;;;4.10;0.80;;;14.40;99.90;;;;;;5111575;28;20371;-67
2023/08/31 07:40:56;;;;;;;9.00;1.10;;;14.40;99.90;;;;;;5110771;28;20119;-68
2023/08/31 07:43:22;;;;;;;3.30;1.00;;;14.50;99.90;;;;;;5104437;28;20052;-68
2023/08/31 07:45:49;;;;;;;7.63;1.10;;;14.60;99.90;;;;;;5111773;28;20039;-68
2023/08/31 07:48:15;;;;;;;5.05;0.93;;;14.70;99.90;;;;;;5093600;28;20056;-68
2023/08/31 07:50:42;;;;;;;12.07;1.30;;;14.90;99.90;;;;;;5105867;28;20040;-67
2023/08/31 07:53:07;;;;;;;5.40;1.05;;;15.00;99.90;;;;;;5090350;28;20044;-68
2023/08/31 07:55:33;;;;;;;4.32;0.90;;;15.10;99.90;;;;;;5111867;28;20470;-68
2023/08/31 07:58:01;;;;;;;6.82;1.10;;;15.20;99.90;;;;;;5103539;28;20058;-67
2023/08/31 08:00:26;;;;;;;4.15;0.90;;;15.30;99.90;;;;;;5111510;28;20055;-68
2023/08/31 08:02:52;;;;;;;4.20;1.05;;;15.40;99.90;;;;;;5094294;28;20043;-71
2023/08/31 08:05:18;;;;;;;4.80;1.05;;;15.50;99.90;;;;;;5112132;28;20462;-68
2023/08/31 08:07:43;;;;;;;6.45;0.75;;;15.60;99.90;;;;;;5111886;28;20066;-67
2023/08/31 08:10:11;;;;;;;5.82;0.77;;;15.70;99.90;;;;;;5111674;28;20043;-67
2023/08/31 08:12:39;;;;;;;4.13;0.80;;;15.80;99.90;;;;;;5111627;28;20080;-68
2023/08/31 08:15:05;;;;;;;7.47;0.95;;;16.00;99.90;;;;;;5111982;28;20075;-67
2023/08/31 08:17:31;;;;;;;5.95;1.02;;;16.20;99.90;;;;;;5112041;28;20104;-68
2023/08/31 08:19:57;;;;;;;4.57;1.00;;;16.40;99.90;;;;;;5108032;28;20048;-68
2023/08/31 08:22:24;;;;;;;3.92;0.90;;;16.50;99.90;;;;;;5107674;28;20043;-71
2023/08/31 08:24:49;;;;;;;3.70;0.77;;;16.60;99.90;;;;;;5118891;27;20054;-67
2023/08/31 08:27:16;;;;;;;5.70;0.70;;;16.80;99.90;;;;;;5111367;28;20055;-70
2023/08/31 08:29:42;;;;;;;3.53;0.70;;;17.10;99.90;;;;;;5119742;27;20118;-68
2023/08/31 08:32:08;;;;;;;3.05;0.60;;;17.20;99.90;;;;;;5112166;28;20107;-67
2023/08/31 08:34:34;;;;;;;4.38;0.73;;;17.30;99.90;;;;;;5120657;27;20106;-68
2023/08/31 08:37:00;;;;;;;4.70;0.77;;;17.40;99.90;;;;;;5120111;27;20666;-68
2023/08/31 08:39:25;;;;;;;3.15;0.65;;;17.50;99.90;;;;;;5111366;28;20093;-68
2023/08/31 08:41:54;;;;;;;4.25;0.60;;;17.70;99.90;;;;;;5111385;28;20040;-68
2023/08/31 08:44:24;;;;;;;2.40;1.02;;;17.90;99.90;;;;;;5119570;27;20039;-67
2023/08/31 08:46:51;;;;;;;3.30;0.60;;;17.90;99.90;;;;;;5120077;27;20063;-67
2023/08/31 08:49:17;;;;;;;5.20;0.50;;;18.00;99.90;;;;;;5110889;28;20051;-67
2023/08/31 08:51:43;;;;;;;2.72;0.60;;;18.10;99.90;;;;;;5093223;28;20698;-68
2023/08/31 08:54:09;;;;;;;4.55;0.80;;;18.10;99.90;;;;;;5120824;27;20046;-67
2023/08/31 08:56:35;;;;;;;1.83;0.45;;;17.80;99.90;;;;;;5103634;27;20129;-68
2023/08/31 08:59:00;;;;;;;2.78;0.40;;;17.10;99.90;;;;;;5114955;27;20031;-70
2023/08/31 09:01:26;;;;;;;0.68;0.28;;;16.70;99.90;;;;;;5110769;28;20050;-71
2023/08/31 09:03:52;;;;;;;6.38;0.50;;;16.40;99.90;;;;;;5110931;28;20046;-67
2023/08/31 09:06:20;;;;;;;2.05;0.43;;;16.20;99.90;;;;;;5111199;28;20524;-68
2023/08/31 09:08:56;;;;;;;2.65;0.50;;;16.00;99.90;;;;;;5111025;28;20118;-67
2023/08/31 09:11:22;;;;;;;1.98;0.40;;;15.90;99.90;;;;;;5110150;28;20055;-69
2023/08/31 09:13:48;;;;;;;2.28;0.43;;;15.90;99.90;;;;;;5111233;28;20047;-67
2023/08/31 09:16:24;;;;;;;3.72;0.55;;;15.90;99.90;;;;;;5110779;28;20057;-68
2023/08/31 09:18:49;;;;;;;2.83;0.60;;;16.20;99.90;;;;;;5103491;28;20028;-67
2023/08/31 09:21:15;;;;;;;7.07;0.90;;;16.50;99.90;;;;;;5110946;28;20451;-68
2023/08/31 09:23:41;;;;;;;6.22;0.70;;;16.70;99.90;;;;;;5110623;28;20039;-68
2023/08/31 09:26:07;;;;;;;2.55;0.60;;;16.90;99.90;;;;;;5130788;27;20474;-68
2023/08/31 09:28:32;;;;;;;5.43;0.63;;;17.00;99.90;;;;;;5129276;27;20050;-69
2023/08/31 09:31:06;;;;;;;6.50;1.02;;;17.30;99.90;;;;;;5125793;27;20108;-67
2023/08/31 09:33:34;;;;;;;5.53;0.70;;;17.50;99.90;;;;;;5131202;27;20490;-68
2023/08/31 09:36:01;;;;;;;5.85;1.13;;;17.50;99.90;;;;;;5118487;27;20048;-67
2023/08/31 09:38:27;;;;;;;8.85;0.80;;;17.80;99.90;;;;;;5122425;27;20494;-69
2023/08/31 09:41:06;;;;;;;4.43;1.20;;;18.00;99.90;;;;;;5119899;27;20023;-66
2023/08/31 09:43:32;;;;;;;4.78;1.00;;;18.20;99.90;;;;;;5119158;28;20055;-68
2023/08/31 09:45:59;;;;;;;8.18;1.50;;;18.50;99.90;;;;;;5119374;28;20436;-67
2023/08/31 09:48:26;;;;;;;2.53;0.60;;;18.40;99.90;;;;;;5122598;28;20049;-68
2023/08/31 09:50:54;;;;;;;1.27;0.43;;;17.80;99.90;;;;;;5122591;28;20074;-68
2023/08/31 09:53:20;;;;;;;1.77;0.50;;;17.20;99.90;;;;;;5119523;28;20043;-68
2023/08/31 09:55:50;;;;;;;3.40;0.68;;;16.80;99.90;;;;;;5117814;28;20048;-67
2023/08/31 09:58:19;;;;;;;3.38;0.60;;;16.60;99.90;;;;;;5120359;28;20071;-67
2023/08/31 10:00:48;;;;;;;2.45;0.57;;;16.60;99.90;;;;;;5122303;28;20077;-67
2023/08/31 10:03:15;;;;;;;1.75;0.60;;;16.50;99.90;;;;;;5121318;28;20543;-69
2023/08/31 10:05:44;;;;;;;5.63;0.80;;;16.70;99.90;;;;;;5119066;28;20039;-67
2023/08/31 10:08:14;;;;;;;2.30;0.63;;;16.90;99.90;;;;;;5119034;28;20039;-67
2023/08/31 10:10:40;;;;;;;6.00;0.75;;;17.00;99.90;;;;;;5122052;28;20039;-68
2023/08/31 10:13:06;;;;;;;4.97;0.70;;;17.00;99.90;;;;;;5127219;28;20103;-68
2023/08/31 10:15:33;;;;;;;4.88;0.60;;;17.20;99.90;;;;;;5123230;27;20121;-67
2023/08/31 10:18:06;;;;;;;1.88;0.43;;;17.20;99.90;;;;;;5125854;27;20039;-68
2023/08/31 10:20:33;;;;;;;0.85;0.50;;;17.40;99.90;;;;;;5125464;27;20046;-67
2023/08/31 10:23:04;;;;;;;2.20;0.60;;;17.60;99.90;;;;;;5126136;27;20118;-67
2023/08/31 10:25:53;;;;;;;4.35;0.57;;;17.70;99.90;;;;;;5112456;27;20074;-70
2023/08/31 10:28:20;;;;;;;4.03;0.65;;;17.80;99.90;;;;;;5102821;28;20048;-67
2023/08/31 10:31:03;;;;;;;1.83;0.50;;;17.70;99.90;;;;;;5111923;28;20098;-66
2023/08/31 10:33:45;;;;;;;4.72;0.60;;;17.60;99.90;;;;;;5113201;28;20043;-68
2023/08/31 10:36:18;;;;;;;4.05;0.60;;;17.30;99.90;;;;;;5102537;28;20044;-67
2023/08/31 10:38:59;;;;;;;1.30;0.35;;;17.50;99.90;;;;;;5110457;28;20509;-68
2023/08/31 10:41:31;;;;;;;3.80;0.57;;;17.60;99.90;;;;;;5102277;28;20062;-68
2023/08/31 10:43:57;;;;;;;2.63;0.60;;;17.50;99.90;;;;;;5110584;28;20054;-68
2023/08/31 10:46:29;;;;;;;3.15;0.43;;;17.40;99.90;;;;;;5109237;28;20115;-68
2023/08/31 10:48:59;;;;;;;2.63;0.50;;;17.40;99.90;;;;;;5109885;28;20117;-67
2023/08/31 10:51:26;;;;;;;0.95;0.40;;;17.20;99.90;;;;;;5108033;28;20078;-68
2023/08/31 10:53:52;;;;;;;1.60;0.50;;;17.00;99.90;;;;;;5108735;28;20036;-66
2023/08/31 10:56:18;;;;;;;2.60;0.52;;;17.00;99.90;;;;;;5111148;28;20100;-68
2023/08/31 10:58:58;;;;;;;5.10;0.95;;;17.40;99.90;;;;;;5106437;28;20478;-68
2023/08/31 11:01:53;;;;;;;1.75;0.60;;;17.70;99.90;;;;;;5107667;28;20089;-68
2023/08/31 11:04:20;;;;;;;3.80;0.88;;;18.00;99.90;;;;;;5103969;28;20454;-68
2023/08/31 11:06:45;;;;;;;1.92;0.47;;;18.30;99.90;;;;;;5108670;28;20036;-67
2023/08/31 11:09:21;;;;;;;2.75;0.90;;;18.40;99.90;;;;;;5101517;28;20050;-67
2023/08/31 11:11:48;;;;;;;2.05;0.50;;;18.70;99.90;;;;;;5101145;28;20040;-67
2023/08/31 11:14:13;;;;;;;2.03;0.60;;;18.90;99.90;;;;;;5109022;28;20122;-68
2023/08/31 11:16:39;;;;;;;3.60;0.60;;;19.10;99.90;;;;;;5104682;28;20122;-68
2023/08/31 11:19:05;;;;;;;4.63;0.80;;;19.40;99.90;;;;;;5112677;28;20733;-68
2023/08/31 11:21:31;;;;;;;3.20;0.68;;;19.50;99.90;;;;;;5104248;28;20093;-67
2023/08/31 11:23:58;;;;;;;6.35;0.88;;;19.30;99.90;;;;;;5086857;28;20395;-68
2023/08/31 11:26:29;;;;;;;8.05;0.98;;;19.20;99.90;;;;;;5117081;27;20067;-67
2023/08/31 11:28:56;;;;;;;3.72;0.50;;;18.90;99.90;;;;;;5112333;28;20043;-67
2023/08/31 11:31:25;;;;;;;4.22;0.75;;;18.80;99.90;;;;;;5113380;28;20114;-67
2023/08/31 11:33:51;;;;;;;2.03;0.60;;;18.60;99.90;;;;;;5112522;28;20127;-68
2023/08/31 11:36:17;;;;;;;3.58;0.52;;;18.80;99.90;;;;;;5112150;27;20118;-67
2023/08/31 11:38:49;;;;;;;3.70;0.60;;;19.00;99.90;;;;;;5112940;28;20607;-67
2023/08/31 11:41:14;;;;;;;4.43;0.70;;;19.10;99.90;;;;;;5104905;28;20039;-67
2023/08/31 11:43:41;;;;;;;3.33;0.60;;;19.30;99.90;;;;;;5112951;28;20042;-68
2023/08/31 11:46:07;;;;;;;2.30;0.40;;;19.50;99.90;;;;;;5112346;28;20070;-67
2023/08/31 11:48:33;;;;;;;1.30;0.50;;;19.70;99.90;;;;;;5112723;28;20039;-67
2023/08/31 11:50:59;;;;;;;1.42;0.40;;;19.70;99.90;;;;;;5094104;28;20047;-67
2023/08/31 11:53:27;;;;;;;2.58;0.40;;;19.60;99.90;;;;;;5112685;28;20100;-67
2023/08/31 11:55:53;;;;;;;2.22;0.60;;;19.30;99.90;;;;;;5093603;28;20093;-68
2023/08/31 11:58:19;;;;;;;6.45;1.10;;;19.00;99.90;;;;;;5104017;27;20039;-67
2023/08/31 12:00:54;;;;;;;5.07;0.80;;;18.60;99.90;;;;;;5112517;28;20043;-67
2023/08/31 12:03:19;;;;;;;5.43;0.88;;;18.30;99.90;;;;;;5112071;28;20529;-68
2023/08/31 12:05:48;;;;;;;5.70;0.60;;;18.10;99.90;;;;;;5111561;28;20035;-68
2023/08/31 12:08:15;;;;;;;3.65;0.57;;;17.90;99.90;;;;;;5093646;28;20053;-68
2023/08/31 12:10:41;;;;;;;1.35;0.45;;;17.70;99.90;;;;;;5104107;28;20040;-66
2023/08/31 12:13:12;;;;;;;1.20;0.40;;;17.60;99.90;;;;;;5112184;28;20039;-67
2023/08/31 12:15:38;;;;;;;1.85;0.50;;;17.60;99.90;;;;;;5111726;28;20043;-67
2023/08/31 12:18:11;;;;;;;2.75;0.50;;;17.60;99.90;;;;;;5112220;28;20401;-67
2023/08/31 12:20:48;;;;;;;3.60;0.75;;;17.60;99.90;;;;;;5112235;28;20044;-67
2023/08/31 12:23:16;;;;;;;2.80;0.52;;;17.80;99.90;;;;;;5110581;28;20435;-67
2023/08/31 12:25:50;;;;;;;1.58;0.55;;;18.20;99.90;;;;;;5110315;28;20140;-67
2023/08/31 12:28:17;;;;;;;5.75;0.70;;;18.20;99.90;;;;;;5107046;28;20063;-68
2023/08/31 12:30:52;;;;;;;4.10;0.90;;;18.20;99.90;;;;;;5110926;28;20048;-68
2023/08/31 12:33:20;;;;;;;2.78;0.50;;;18.10;99.90;;;;;;5103862;28;20153;-68
2023/08/31 12:35:46;;;;;;;4.10;0.70;;;18.10;99.90;;;;;;5109829;28;20142;-67
2023/08/31 12:38:12;;;;;;;3.00;1.33;;;18.10;99.90;;;;;;5108689;28;20050;-67
2023/08/31 12:40:38;;;;;;;4.63;0.77;;;18.40;99.90;;;;;;5104842;28;20040;-67
2023/08/31 12:43:05;;;;;;;4.32;0.80;;;18.50;99.90;;;;;;5102272;28;20044;-67
2023/08/31 12:45:31;;;;;;;3.35;0.90;;;18.80;99.90;;;;;;5111686;28;20072;-67
2023/08/31 12:47:56;;;;;;;4.15;0.88;;;19.10;99.90;;;;;;5094762;28;20125;-67
2023/08/31 12:50:23;;;;;;;3.70;0.70;;;19.30;99.90;;;;;;5100188;28;20131;-68